sensor_id;sensor_type;location;lat;lon;timestamp;P1;durP1;ratioP1;P2;durP2;ratioP2
3379;SDS011;1703;51.964;7.642;2023-05-23T00:02:09;10.60;;;6.17;;
3379;SDS011;1703;51.964;7.642;2023-05-23T00:04:37;12.43;;;7.43;;
3379;SDS011;1703;51.964;7.642;2023-05-23T00:07:04;8.40;;;7.50;;
3379;SDS011;1703;51.964;7.642;2023-05-23T00:09:31;8.57;;;7.20;;
3379;SDS011;1703;51.964;7.642;2023-05-23T00:11:58;6.90;;;6.03;;
3379;SDS011;1703;51.964;7.642;2023-05-23T00:14:26;8.20;;;7.13;;
3379;SDS011;1703;51.964;7.642;2023-05-23T00:16:57;7.57;;;6.80;;
3379;SDS011;1703;51.964;7.642;2023-05-23T00:19:25;7.80;;;7.00;;
3379;SDS011;1703;51.964;7.642;2023-05-23T00:21:52;10.90;;;7.10;;
3379;SDS011;1703;51.964;7.642;2023-05-23T00:24:22;8.80;;;7.13;;
3379;SDS011;1703;51.964;7.642;2023-05-23T00:26:49;6.40;;;5.67;;
3379;SDS011;1703;51.964;7.642;2023-05-23T00:29:16;10.00;;;6.60;;
3379;SDS011;1703;51.964;7.642;2023-05-23T00:31:45;8.30;;;7.23;;
3379;SDS011;1703;51.964;7.642;2023-05-23T00:34:12;8.93;;;6.90;;
3379;SDS011;1703;51.964;7.642;2023-05-23T00:36:41;9.20;;;7.90;;
3379;SDS011;1703;51.964;7.642;2023-05-23T00:39:12;11.33;;;9.00;;
3379;SDS011;1703;51.964;7.642;2023-05-23T00:41:43;12.27;;;8.23;;
3379;SDS011;1703;51.964;7.642;2023-05-23T00:44:11;11.30;;;6.50;;
3379;SDS011;1703;51.964;7.642;2023-05-23T00:46:38;9.00;;;7.73;;
3379;SDS011;1703;51.964;7.642;2023-05-23T00:49:07;8.30;;;7.10;;
3379;SDS011;1703;51.964;7.642;2023-05-23T00:51:33;7.97;;;7.17;;
3379;SDS011;1703;51.964;7.642;2023-05-23T00:54:00;9.57;;;7.33;;
3379;SDS011;1703;51.964;7.642;2023-05-23T00:56:29;8.30;;;7.40;;
3379;SDS011;1703;51.964;7.642;2023-05-23T00:58:56;10.90;;;8.40;;
3379;SDS011;1703;51.964;7.642;2023-05-23T01:01:25;9.90;;;7.90;;
3379;SDS011;1703;51.964;7.642;2023-05-23T01:03:52;10.43;;;9.33;;
3379;SDS011;1703;51.964;7.642;2023-05-23T01:06:20;9.13;;;8.00;;
3379;SDS011;1703;51.964;7.642;2023-05-23T01:08:47;8.90;;;7.10;;
3379;SDS011;1703;51.964;7.642;2023-05-23T01:11:15;9.27;;;7.93;;
3379;SDS011;1703;51.964;7.642;2023-05-23T01:13:50;10.33;;;8.73;;
3379;SDS011;1703;51.964;7.642;2023-05-23T01:16:26;10.27;;;8.00;;
3379;SDS011;1703;51.964;7.642;2023-05-23T01:19:03;9.40;;;7.50;;
3379;SDS011;1703;51.964;7.642;2023-05-23T01:21:44;11.30;;;7.10;;
3379;SDS011;1703;51.964;7.642;2023-05-23T01:24:28;9.30;;;6.80;;
3379;SDS011;1703;51.964;7.642;2023-05-23T01:27:04;8.83;;;7.23;;
3379;SDS011;1703;51.964;7.642;2023-05-23T01:29:38;7.47;;;6.10;;
3379;SDS011;1703;51.964;7.642;2023-05-23T01:32:09;6.60;;;5.77;;
3379;SDS011;1703;51.964;7.642;2023-05-23T01:34:37;8.50;;;7.10;;
3379;SDS011;1703;51.964;7.642;2023-05-23T01:37:07;9.13;;;7.10;;
3379;SDS011;1703;51.964;7.642;2023-05-23T01:39:35;10.03;;;6.17;;
3379;SDS011;1703;51.964;7.642;2023-05-23T01:42:02;9.00;;;7.27;;
3379;SDS011;1703;51.964;7.642;2023-05-23T01:44:31;16.37;;;7.27;;
3379;SDS011;1703;51.964;7.642;2023-05-23T01:47:00;10.10;;;8.43;;
3379;SDS011;1703;51.964;7.642;2023-05-23T01:49:29;11.70;;;9.67;;
3379;SDS011;1703;51.964;7.642;2023-05-23T01:51:57;10.20;;;8.90;;
3379;SDS011;1703;51.964;7.642;2023-05-23T01:54:24;10.87;;;8.50;;
3379;SDS011;1703;51.964;7.642;2023-05-23T01:56:53;10.43;;;9.17;;
3379;SDS011;1703;51.964;7.642;2023-05-23T01:59:21;14.83;;;10.50;;
3379;SDS011;1703;51.964;7.642;2023-05-23T02:01:48;14.17;;;9.80;;
3379;SDS011;1703;51.964;7.642;2023-05-23T02:04:16;16.67;;;8.87;;
3379;SDS011;1703;51.964;7.642;2023-05-23T02:06:43;14.10;;;10.30;;
3379;SDS011;1703;51.964;7.642;2023-05-23T02:09:11;11.77;;;9.93;;
3379;SDS011;1703;51.964;7.642;2023-05-23T02:11:38;15.10;;;11.00;;
3379;SDS011;1703;51.964;7.642;2023-05-23T02:14:05;14.63;;;11.60;;
3379;SDS011;1703;51.964;7.642;2023-05-23T02:16:32;16.30;;;10.57;;
3379;SDS011;1703;51.964;7.642;2023-05-23T02:19:00;16.43;;;11.10;;
3379;SDS011;1703;51.964;7.642;2023-05-23T02:21:28;12.83;;;10.20;;
3379;SDS011;1703;51.964;7.642;2023-05-23T02:23:56;19.50;;;10.80;;
3379;SDS011;1703;51.964;7.642;2023-05-23T02:26:23;13.90;;;11.20;;
3379;SDS011;1703;51.964;7.642;2023-05-23T02:28:51;14.97;;;11.27;;
3379;SDS011;1703;51.964;7.642;2023-05-23T02:31:18;16.10;;;11.60;;
3379;SDS011;1703;51.964;7.642;2023-05-23T02:33:45;20.97;;;12.90;;
3379;SDS011;1703;51.964;7.642;2023-05-23T02:36:12;17.53;;;11.67;;
3379;SDS011;1703;51.964;7.642;2023-05-23T02:38:41;21.33;;;12.43;;
3379;SDS011;1703;51.964;7.642;2023-05-23T02:41:07;20.17;;;13.30;;
3379;SDS011;1703;51.964;7.642;2023-05-23T02:43:34;16.60;;;12.20;;
3379;SDS011;1703;51.964;7.642;2023-05-23T02:46:03;22.50;;;13.80;;
3379;SDS011;1703;51.964;7.642;2023-05-23T02:48:31;19.30;;;14.03;;
3379;SDS011;1703;51.964;7.642;2023-05-23T02:50:58;19.57;;;12.90;;
3379;SDS011;1703;51.964;7.642;2023-05-23T02:53:24;21.70;;;13.73;;
3379;SDS011;1703;51.964;7.642;2023-05-23T02:55:53;18.13;;;12.77;;
3379;SDS011;1703;51.964;7.642;2023-05-23T02:58:20;18.47;;;13.00;;
3379;SDS011;1703;51.964;7.642;2023-05-23T03:00:48;20.60;;;12.83;;
3379;SDS011;1703;51.964;7.642;2023-05-23T03:03:15;16.63;;;12.17;;
3379;SDS011;1703;51.964;7.642;2023-05-23T03:05:42;21.10;;;13.73;;
3379;SDS011;1703;51.964;7.642;2023-05-23T03:08:09;16.33;;;11.77;;
3379;SDS011;1703;51.964;7.642;2023-05-23T03:10:36;16.67;;;12.20;;
3379;SDS011;1703;51.964;7.642;2023-05-23T03:13:04;19.77;;;12.60;;
3379;SDS011;1703;51.964;7.642;2023-05-23T03:15:31;15.43;;;11.47;;
3379;SDS011;1703;51.964;7.642;2023-05-23T03:17:57;16.13;;;12.63;;
3379;SDS011;1703;51.964;7.642;2023-05-23T03:20:24;15.67;;;11.70;;
3379;SDS011;1703;51.964;7.642;2023-05-23T03:22:53;16.30;;;10.83;;
3379;SDS011;1703;51.964;7.642;2023-05-23T03:25:21;12.97;;;8.23;;
3379;SDS011;1703;51.964;7.642;2023-05-23T03:27:48;11.87;;;9.40;;
3379;SDS011;1703;51.964;7.642;2023-05-23T03:30:16;14.73;;;9.77;;
3379;SDS011;1703;51.964;7.642;2023-05-23T03:32:43;11.20;;;9.10;;
3379;SDS011;1703;51.964;7.642;2023-05-23T03:35:10;13.43;;;9.47;;
3379;SDS011;1703;51.964;7.642;2023-05-23T03:37:37;15.37;;;8.63;;
3379;SDS011;1703;51.964;7.642;2023-05-23T03:40:05;11.83;;;8.80;;
3379;SDS011;1703;51.964;7.642;2023-05-23T03:42:34;9.13;;;7.80;;
3379;SDS011;1703;51.964;7.642;2023-05-23T03:45:03;9.90;;;7.57;;
3379;SDS011;1703;51.964;7.642;2023-05-23T03:47:32;13.17;;;9.30;;
3379;SDS011;1703;51.964;7.642;2023-05-23T03:49:59;11.17;;;7.37;;
3379;SDS011;1703;51.964;7.642;2023-05-23T03:52:26;11.13;;;7.90;;
3379;SDS011;1703;51.964;7.642;2023-05-23T03:54:53;9.83;;;8.00;;
3379;SDS011;1703;51.964;7.642;2023-05-23T03:57:20;12.27;;;9.30;;
3379;SDS011;1703;51.964;7.642;2023-05-23T03:59:47;10.40;;;8.53;;
3379;SDS011;1703;51.964;7.642;2023-05-23T04:02:14;13.40;;;9.00;;
3379;SDS011;1703;51.964;7.642;2023-05-23T04:04:43;10.10;;;7.23;;
3379;SDS011;1703;51.964;7.642;2023-05-23T04:07:11;13.13;;;7.90;;
3379;SDS011;1703;51.964;7.642;2023-05-23T04:09:41;15.57;;;9.47;;
3379;SDS011;1703;51.964;7.642;2023-05-23T04:12:09;13.07;;;9.30;;
3379;SDS011;1703;51.964;7.642;2023-05-23T04:14:36;14.60;;;8.97;;
3379;SDS011;1703;51.964;7.642;2023-05-23T04:17:04;10.80;;;8.83;;
3379;SDS011;1703;51.964;7.642;2023-05-23T04:19:34;14.00;;;12.50;;
3379;SDS011;1703;51.964;7.642;2023-05-23T04:22:02;16.43;;;10.43;;
3379;SDS011;1703;51.964;7.642;2023-05-23T04:24:29;12.83;;;9.67;;
3379;SDS011;1703;51.964;7.642;2023-05-23T04:26:56;12.10;;;9.53;;
3379;SDS011;1703;51.964;7.642;2023-05-23T04:29:23;14.13;;;10.40;;
3379;SDS011;1703;51.964;7.642;2023-05-23T04:31:50;15.53;;;11.23;;
3379;SDS011;1703;51.964;7.642;2023-05-23T04:34:19;13.60;;;11.13;;
3379;SDS011;1703;51.964;7.642;2023-05-23T04:36:46;16.40;;;10.33;;
3379;SDS011;1703;51.964;7.642;2023-05-23T04:39:15;16.00;;;10.80;;
3379;SDS011;1703;51.964;7.642;2023-05-23T04:42:11;13.60;;;10.63;;
3379;SDS011;1703;51.964;7.642;2023-05-23T04:44:54;22.47;;;12.83;;
3379;SDS011;1703;51.964;7.642;2023-05-23T04:47:39;24.83;;;14.67;;
3379;SDS011;1703;51.964;7.642;2023-05-23T04:50:08;18.60;;;12.37;;
3379;SDS011;1703;51.964;7.642;2023-05-23T04:52:36;18.33;;;12.80;;
3379;SDS011;1703;51.964;7.642;2023-05-23T04:55:05;19.37;;;12.00;;
3379;SDS011;1703;51.964;7.642;2023-05-23T04:57:34;15.00;;;12.50;;
3379;SDS011;1703;51.964;7.642;2023-05-23T05:00:01;14.73;;;11.60;;
3379;SDS011;1703;51.964;7.642;2023-05-23T05:02:40;16.43;;;13.20;;
3379;SDS011;1703;51.964;7.642;2023-05-23T05:05:08;16.77;;;11.80;;
3379;SDS011;1703;51.964;7.642;2023-05-23T05:07:35;21.20;;;12.57;;
3379;SDS011;1703;51.964;7.642;2023-05-23T05:10:05;24.70;;;12.47;;
3379;SDS011;1703;51.964;7.642;2023-05-23T05:12:33;23.70;;;14.03;;
3379;SDS011;1703;51.964;7.642;2023-05-23T05:15:01;22.53;;;12.27;;
3379;SDS011;1703;51.964;7.642;2023-05-23T05:17:29;19.10;;;11.33;;
3379;SDS011;1703;51.964;7.642;2023-05-23T05:20:03;18.37;;;13.20;;
3379;SDS011;1703;51.964;7.642;2023-05-23T05:22:33;17.07;;;11.57;;
3379;SDS011;1703;51.964;7.642;2023-05-23T05:25:01;16.40;;;12.00;;
3379;SDS011;1703;51.964;7.642;2023-05-23T05:27:29;15.57;;;11.47;;
3379;SDS011;1703;51.964;7.642;2023-05-23T05:29:56;14.20;;;10.30;;
3379;SDS011;1703;51.964;7.642;2023-05-23T05:32:29;18.53;;;11.93;;
3379;SDS011;1703;51.964;7.642;2023-05-23T05:34:58;19.40;;;11.33;;
3379;SDS011;1703;51.964;7.642;2023-05-23T05:37:27;14.83;;;10.70;;
3379;SDS011;1703;51.964;7.642;2023-05-23T05:39:54;14.73;;;10.33;;
3379;SDS011;1703;51.964;7.642;2023-05-23T05:42:21;25.50;;;12.93;;
3379;SDS011;1703;51.964;7.642;2023-05-23T05:44:50;19.50;;;10.53;;
3379;SDS011;1703;51.964;7.642;2023-05-23T05:47:18;21.57;;;12.47;;
3379;SDS011;1703;51.964;7.642;2023-05-23T05:49:45;20.43;;;10.63;;
3379;SDS011;1703;51.964;7.642;2023-05-23T05:52:12;17.00;;;9.87;;
3379;SDS011;1703;51.964;7.642;2023-05-23T05:54:39;14.60;;;9.47;;
3379;SDS011;1703;51.964;7.642;2023-05-23T05:57:06;9.20;;;6.60;;
3379;SDS011;1703;51.964;7.642;2023-05-23T05:59:32;12.00;;;7.43;;
3379;SDS011;1703;51.964;7.642;2023-05-23T06:02:02;14.00;;;6.30;;
3379;SDS011;1703;51.964;7.642;2023-05-23T06:04:34;9.40;;;6.10;;
3379;SDS011;1703;51.964;7.642;2023-05-23T06:07:18;10.07;;;6.20;;
3379;SDS011;1703;51.964;7.642;2023-05-23T06:10:08;4.80;;;4.30;;
3379;SDS011;1703;51.964;7.642;2023-05-23T06:12:49;7.67;;;5.57;;
3379;SDS011;1703;51.964;7.642;2023-05-23T06:21:57;4.50;;;4.00;;
3379;SDS011;1703;51.964;7.642;2023-05-23T06:30:47;3.47;;;3.23;;
3379;SDS011;1703;51.964;7.642;2023-05-23T06:33:27;5.13;;;2.90;;
3379;SDS011;1703;51.964;7.642;2023-05-23T06:39:31;5.70;;;4.13;;
3379;SDS011;1703;51.964;7.642;2023-05-23T06:42:38;3.80;;;3.43;;
3379;SDS011;1703;51.964;7.642;2023-05-23T06:45:46;3.40;;;3.10;;
3379;SDS011;1703;51.964;7.642;2023-05-23T06:48:30;3.50;;;3.10;;
3379;SDS011;1703;51.964;7.642;2023-05-23T06:51:07;6.73;;;3.10;;
3379;SDS011;1703;51.964;7.642;2023-05-23T06:53:39;5.10;;;2.50;;
3379;SDS011;1703;51.964;7.642;2023-05-23T06:56:44;4.53;;;2.80;;
3379;SDS011;1703;51.964;7.642;2023-05-23T06:59:11;5.50;;;4.03;;
3379;SDS011;1703;51.964;7.642;2023-05-23T07:02:17;10.13;;;2.83;;
3379;SDS011;1703;51.964;7.642;2023-05-23T07:05:01;6.60;;;3.97;;
3379;SDS011;1703;51.964;7.642;2023-05-23T07:07:45;3.60;;;3.30;;
3379;SDS011;1703;51.964;7.642;2023-05-23T07:10:13;6.40;;;3.13;;
3379;SDS011;1703;51.964;7.642;2023-05-23T07:12:42;4.47;;;3.60;;
3379;SDS011;1703;51.964;7.642;2023-05-23T07:15:09;6.50;;;3.17;;
3379;SDS011;1703;51.964;7.642;2023-05-23T07:17:45;6.63;;;3.23;;
3379;SDS011;1703;51.964;7.642;2023-05-23T07:20:12;4.10;;;3.70;;
3379;SDS011;1703;51.964;7.642;2023-05-23T07:22:40;5.50;;;4.20;;
3379;SDS011;1703;51.964;7.642;2023-05-23T07:25:07;9.90;;;4.07;;
3379;SDS011;1703;51.964;7.642;2023-05-23T07:27:34;4.53;;;4.23;;
3379;SDS011;1703;51.964;7.642;2023-05-23T07:30:03;8.27;;;4.57;;
3379;SDS011;1703;51.964;7.642;2023-05-23T07:32:32;5.27;;;4.30;;
3379;SDS011;1703;51.964;7.642;2023-05-23T07:34:58;7.47;;;3.67;;
3379;SDS011;1703;51.964;7.642;2023-05-23T07:37:25;8.17;;;4.70;;
3379;SDS011;1703;51.964;7.642;2023-05-23T07:39:52;9.93;;;4.70;;
3379;SDS011;1703;51.964;7.642;2023-05-23T07:42:19;12.53;;;5.30;;
3379;SDS011;1703;51.964;7.642;2023-05-23T07:44:46;3.80;;;3.50;;
3379;SDS011;1703;51.964;7.642;2023-05-23T07:47:14;6.53;;;4.40;;
3379;SDS011;1703;51.964;7.642;2023-05-23T07:49:42;8.37;;;3.77;;
3379;SDS011;1703;51.964;7.642;2023-05-23T07:52:09;10.50;;;4.77;;
3379;SDS011;1703;51.964;7.642;2023-05-23T07:54:37;5.83;;;4.87;;
3379;SDS011;1703;51.964;7.642;2023-05-23T07:57:04;8.00;;;5.10;;
3379;SDS011;1703;51.964;7.642;2023-05-23T07:59:33;7.93;;;3.87;;
3379;SDS011;1703;51.964;7.642;2023-05-23T08:02:00;9.50;;;4.83;;
3379;SDS011;1703;51.964;7.642;2023-05-23T08:04:28;10.60;;;4.83;;
3379;SDS011;1703;51.964;7.642;2023-05-23T08:06:56;5.30;;;4.30;;
3379;SDS011;1703;51.964;7.642;2023-05-23T08:09:28;10.60;;;4.30;;
3379;SDS011;1703;51.964;7.642;2023-05-23T08:11:56;9.00;;;3.70;;
3379;SDS011;1703;51.964;7.642;2023-05-23T08:14:24;5.13;;;4.07;;
3379;SDS011;1703;51.964;7.642;2023-05-23T08:16:56;6.03;;;3.50;;
3379;SDS011;1703;51.964;7.642;2023-05-23T08:19:25;5.97;;;4.30;;
3379;SDS011;1703;51.964;7.642;2023-05-23T08:21:54;11.40;;;4.30;;
3379;SDS011;1703;51.964;7.642;2023-05-23T08:24:20;8.07;;;4.70;;
3379;SDS011;1703;51.964;7.642;2023-05-23T08:26:48;4.67;;;3.73;;
3379;SDS011;1703;51.964;7.642;2023-05-23T08:29:15;5.40;;;3.77;;
3379;SDS011;1703;51.964;7.642;2023-05-23T08:31:43;13.97;;;5.70;;
3379;SDS011;1703;51.964;7.642;2023-05-23T08:34:10;8.13;;;4.80;;
3379;SDS011;1703;51.964;7.642;2023-05-23T08:36:39;10.77;;;4.60;;
3379;SDS011;1703;51.964;7.642;2023-05-23T08:39:12;10.03;;;4.03;;
3379;SDS011;1703;51.964;7.642;2023-05-23T08:41:46;7.40;;;4.73;;
3379;SDS011;1703;51.964;7.642;2023-05-23T08:44:12;3.60;;;3.30;;
3379;SDS011;1703;51.964;7.642;2023-05-23T08:46:46;5.20;;;3.50;;
3379;SDS011;1703;51.964;7.642;2023-05-23T08:49:39;5.27;;;3.23;;
3379;SDS011;1703;51.964;7.642;2023-05-23T08:52:07;7.90;;;3.30;;
3379;SDS011;1703;51.964;7.642;2023-05-23T08:54:41;6.50;;;3.90;;
3379;SDS011;1703;51.964;7.642;2023-05-23T08:57:10;5.97;;;3.80;;
3379;SDS011;1703;51.964;7.642;2023-05-23T08:59:41;4.90;;;3.10;;
3379;SDS011;1703;51.964;7.642;2023-05-23T09:02:09;4.47;;;3.57;;
3379;SDS011;1703;51.964;7.642;2023-05-23T09:04:37;6.20;;;3.63;;
3379;SDS011;1703;51.964;7.642;2023-05-23T09:07:18;8.63;;;4.13;;
3379;SDS011;1703;51.964;7.642;2023-05-23T09:09:48;11.80;;;6.53;;
3379;SDS011;1703;51.964;7.642;2023-05-23T09:12:16;8.97;;;4.03;;
3379;SDS011;1703;51.964;7.642;2023-05-23T09:14:46;9.70;;;4.70;;
3379;SDS011;1703;51.964;7.642;2023-05-23T09:17:14;8.43;;;5.10;;
3379;SDS011;1703;51.964;7.642;2023-05-23T09:19:44;14.87;;;6.07;;
3379;SDS011;1703;51.964;7.642;2023-05-23T09:22:22;12.43;;;5.23;;
3379;SDS011;1703;51.964;7.642;2023-05-23T09:24:59;15.80;;;5.90;;
3379;SDS011;1703;51.964;7.642;2023-05-23T09:27:27;15.33;;;5.70;;
3379;SDS011;1703;51.964;7.642;2023-05-23T09:29:55;25.07;;;5.93;;
3379;SDS011;1703;51.964;7.642;2023-05-23T09:32:24;11.57;;;5.33;;
3379;SDS011;1703;51.964;7.642;2023-05-23T09:34:55;10.47;;;4.83;;
3379;SDS011;1703;51.964;7.642;2023-05-23T09:37:30;9.70;;;4.87;;
3379;SDS011;1703;51.964;7.642;2023-05-23T09:39:59;10.33;;;4.60;;
3379;SDS011;1703;51.964;7.642;2023-05-23T09:42:31;19.53;;;4.87;;
3379;SDS011;1703;51.964;7.642;2023-05-23T09:44:59;8.93;;;4.10;;
3379;SDS011;1703;51.964;7.642;2023-05-23T09:47:28;7.70;;;4.70;;
3379;SDS011;1703;51.964;7.642;2023-05-23T09:49:55;7.83;;;5.00;;
3379;SDS011;1703;51.964;7.642;2023-05-23T09:52:22;10.83;;;5.20;;
3379;SDS011;1703;51.964;7.642;2023-05-23T09:54:48;12.70;;;4.37;;
3379;SDS011;1703;51.964;7.642;2023-05-23T09:57:17;9.20;;;4.70;;
3379;SDS011;1703;51.964;7.642;2023-05-23T09:59:49;14.20;;;4.93;;
3379;SDS011;1703;51.964;7.642;2023-05-23T10:02:23;7.23;;;4.23;;
3379;SDS011;1703;51.964;7.642;2023-05-23T10:05:21;14.17;;;5.30;;
3379;SDS011;1703;51.964;7.642;2023-05-23T10:07:57;10.90;;;5.80;;
3379;SDS011;1703;51.964;7.642;2023-05-23T10:10:27;10.97;;;4.60;;
3379;SDS011;1703;51.964;7.642;2023-05-23T10:12:57;10.00;;;4.03;;
3379;SDS011;1703;51.964;7.642;2023-05-23T10:15:27;6.97;;;3.50;;
3379;SDS011;1703;51.964;7.642;2023-05-23T10:18:05;11.07;;;4.47;;
3379;SDS011;1703;51.964;7.642;2023-05-23T10:20:35;11.10;;;5.33;;
3379;SDS011;1703;51.964;7.642;2023-05-23T10:23:05;12.90;;;4.47;;
3379;SDS011;1703;51.964;7.642;2023-05-23T10:25:32;8.73;;;4.20;;
3379;SDS011;1703;51.964;7.642;2023-05-23T10:28:02;7.33;;;4.07;;
3379;SDS011;1703;51.964;7.642;2023-05-23T10:30:30;19.00;;;5.53;;
3379;SDS011;1703;51.964;7.642;2023-05-23T10:32:57;6.60;;;4.50;;
3379;SDS011;1703;51.964;7.642;2023-05-23T10:35:30;15.70;;;4.73;;
3379;SDS011;1703;51.964;7.642;2023-05-23T10:38:06;14.90;;;5.03;;
3379;SDS011;1703;51.964;7.642;2023-05-23T10:40:45;17.20;;;4.23;;
3379;SDS011;1703;51.964;7.642;2023-05-23T10:43:22;19.17;;;5.07;;
3379;SDS011;1703;51.964;7.642;2023-05-23T10:45:54;10.23;;;3.83;;
3379;SDS011;1703;51.964;7.642;2023-05-23T10:48:21;14.83;;;4.57;;
3379;SDS011;1703;51.964;7.642;2023-05-23T10:51:04;13.53;;;4.33;;
3379;SDS011;1703;51.964;7.642;2023-05-23T10:53:34;15.33;;;4.17;;
3379;SDS011;1703;51.964;7.642;2023-05-23T10:56:09;10.10;;;4.57;;
3379;SDS011;1703;51.964;7.642;2023-05-23T10:58:45;16.67;;;4.43;;
3379;SDS011;1703;51.964;7.642;2023-05-23T11:01:12;12.10;;;4.20;;
3379;SDS011;1703;51.964;7.642;2023-05-23T11:03:48;12.13;;;3.80;;
3379;SDS011;1703;51.964;7.642;2023-05-23T11:06:27;14.90;;;4.53;;
3379;SDS011;1703;51.964;7.642;2023-05-23T11:09:00;15.33;;;4.20;;
3379;SDS011;1703;51.964;7.642;2023-05-23T11:14:31;14.97;;;5.30;;
3379;SDS011;1703;51.964;7.642;2023-05-23T11:17:14;18.10;;;3.80;;
3379;SDS011;1703;51.964;7.642;2023-05-23T11:19:54;16.33;;;4.10;;
3379;SDS011;1703;51.964;7.642;2023-05-23T11:22:26;8.97;;;4.20;;
3379;SDS011;1703;51.964;7.642;2023-05-23T11:24:55;12.10;;;3.90;;
3379;SDS011;1703;51.964;7.642;2023-05-23T11:27:26;13.13;;;4.57;;
3379;SDS011;1703;51.964;7.642;2023-05-23T11:30:02;12.80;;;3.90;;
3379;SDS011;1703;51.964;7.642;2023-05-23T11:32:32;9.53;;;3.20;;
3379;SDS011;1703;51.964;7.642;2023-05-23T11:35:00;15.30;;;4.57;;
3379;SDS011;1703;51.964;7.642;2023-05-23T11:37:28;15.57;;;5.00;;
3379;SDS011;1703;51.964;7.642;2023-05-23T11:39:55;13.90;;;3.87;;
3379;SDS011;1703;51.964;7.642;2023-05-23T11:42:22;7.87;;;3.90;;
3379;SDS011;1703;51.964;7.642;2023-05-23T11:44:50;11.20;;;3.60;;
3379;SDS011;1703;51.964;7.642;2023-05-23T11:47:18;8.60;;;3.43;;
3379;SDS011;1703;51.964;7.642;2023-05-23T11:49:46;8.73;;;2.80;;
3379;SDS011;1703;51.964;7.642;2023-05-23T11:52:13;18.07;;;4.67;;
3379;SDS011;1703;51.964;7.642;2023-05-23T11:54:40;12.80;;;3.30;;
3379;SDS011;1703;51.964;7.642;2023-05-23T11:57:07;17.43;;;4.17;;
3379;SDS011;1703;51.964;7.642;2023-05-23T11:59:35;10.77;;;4.63;;
3379;SDS011;1703;51.964;7.642;2023-05-23T12:02:02;13.70;;;3.87;;
3379;SDS011;1703;51.964;7.642;2023-05-23T12:04:32;9.87;;;3.37;;
3379;SDS011;1703;51.964;7.642;2023-05-23T12:07:03;13.63;;;4.60;;
3379;SDS011;1703;51.964;7.642;2023-05-23T12:09:31;15.67;;;4.17;;
3379;SDS011;1703;51.964;7.642;2023-05-23T12:11:57;15.27;;;4.57;;
3379;SDS011;1703;51.964;7.642;2023-05-23T12:14:27;22.33;;;3.67;;
3379;SDS011;1703;51.964;7.642;2023-05-23T12:16:54;15.50;;;4.27;;
3379;SDS011;1703;51.964;7.642;2023-05-23T12:19:21;17.97;;;3.90;;
3379;SDS011;1703;51.964;7.642;2023-05-23T12:21:52;10.50;;;4.50;;
3379;SDS011;1703;51.964;7.642;2023-05-23T12:24:21;6.87;;;3.80;;
3379;SDS011;1703;51.964;7.642;2023-05-23T12:26:52;13.83;;;4.80;;
3379;SDS011;1703;51.964;7.642;2023-05-23T12:29:27;12.70;;;3.77;;
3379;SDS011;1703;51.964;7.642;2023-05-23T12:31:56;9.73;;;3.57;;
3379;SDS011;1703;51.964;7.642;2023-05-23T12:34:24;15.97;;;3.83;;
3379;SDS011;1703;51.964;7.642;2023-05-23T12:36:54;15.23;;;4.03;;
3379;SDS011;1703;51.964;7.642;2023-05-23T12:39:25;10.73;;;3.70;;
3379;SDS011;1703;51.964;7.642;2023-05-23T12:41:53;14.33;;;4.20;;
3379;SDS011;1703;51.964;7.642;2023-05-23T12:44:22;12.30;;;2.90;;
3379;SDS011;1703;51.964;7.642;2023-05-23T12:46:49;12.80;;;4.27;;
3379;SDS011;1703;51.964;7.642;2023-05-23T12:49:16;14.53;;;5.00;;
3379;SDS011;1703;51.964;7.642;2023-05-23T12:51:43;8.40;;;3.37;;
3379;SDS011;1703;51.964;7.642;2023-05-23T12:54:11;8.27;;;4.63;;
3379;SDS011;1703;51.964;7.642;2023-05-23T12:56:38;9.40;;;4.33;;
3379;SDS011;1703;51.964;7.642;2023-05-23T12:59:05;10.97;;;4.10;;
3379;SDS011;1703;51.964;7.642;2023-05-23T13:01:32;19.03;;;4.03;;
3379;SDS011;1703;51.964;7.642;2023-05-23T13:03:59;8.30;;;2.97;;
3379;SDS011;1703;51.964;7.642;2023-05-23T13:06:26;10.87;;;3.20;;
3379;SDS011;1703;51.964;7.642;2023-05-23T13:08:53;9.30;;;3.77;;
3379;SDS011;1703;51.964;7.642;2023-05-23T13:11:22;10.17;;;3.73;;
3379;SDS011;1703;51.964;7.642;2023-05-23T13:13:49;7.00;;;3.30;;
3379;SDS011;1703;51.964;7.642;2023-05-23T13:16:16;8.00;;;3.67;;
3379;SDS011;1703;51.964;7.642;2023-05-23T13:18:43;8.13;;;3.90;;
3379;SDS011;1703;51.964;7.642;2023-05-23T13:21:10;8.20;;;3.77;;
3379;SDS011;1703;51.964;7.642;2023-05-23T13:23:37;14.53;;;3.53;;
3379;SDS011;1703;51.964;7.642;2023-05-23T13:26:04;12.77;;;3.93;;
3379;SDS011;1703;51.964;7.642;2023-05-23T13:28:33;9.73;;;3.93;;
3379;SDS011;1703;51.964;7.642;2023-05-23T13:31:00;9.30;;;3.43;;
3379;SDS011;1703;51.964;7.642;2023-05-23T13:33:27;8.90;;;3.50;;
3379;SDS011;1703;51.964;7.642;2023-05-23T13:35:55;9.53;;;3.13;;
3379;SDS011;1703;51.964;7.642;2023-05-23T13:38:21;9.70;;;3.90;;
3379;SDS011;1703;51.964;7.642;2023-05-23T13:40:48;10.70;;;3.33;;
3379;SDS011;1703;51.964;7.642;2023-05-23T13:43:16;8.50;;;3.20;;
3379;SDS011;1703;51.964;7.642;2023-05-23T13:45:45;10.83;;;3.20;;
3379;SDS011;1703;51.964;7.642;2023-05-23T13:48:12;9.90;;;3.23;;
3379;SDS011;1703;51.964;7.642;2023-05-23T13:50:39;9.73;;;3.10;;
3379;SDS011;1703;51.964;7.642;2023-05-23T13:53:05;10.80;;;3.50;;
3379;SDS011;1703;51.964;7.642;2023-05-23T13:55:38;8.43;;;3.00;;
3379;SDS011;1703;51.964;7.642;2023-05-23T13:58:05;8.67;;;3.00;;
3379;SDS011;1703;51.964;7.642;2023-05-23T14:00:32;6.87;;;3.17;;
3379;SDS011;1703;51.964;7.642;2023-05-23T14:03:00;11.97;;;3.33;;
3379;SDS011;1703;51.964;7.642;2023-05-23T14:05:28;13.70;;;3.23;;
3379;SDS011;1703;51.964;7.642;2023-05-23T14:07:54;8.40;;;3.97;;
3379;SDS011;1703;51.964;7.642;2023-05-23T14:10:21;7.03;;;2.70;;
3379;SDS011;1703;51.964;7.642;2023-05-23T14:12:48;9.70;;;4.27;;
3379;SDS011;1703;51.964;7.642;2023-05-23T14:15:15;7.63;;;3.70;;
3379;SDS011;1703;51.964;7.642;2023-05-23T14:17:42;11.43;;;4.17;;
3379;SDS011;1703;51.964;7.642;2023-05-23T14:20:11;10.00;;;4.60;;
3379;SDS011;1703;51.964;7.642;2023-05-23T14:22:38;12.67;;;3.80;;
3379;SDS011;1703;51.964;7.642;2023-05-23T14:25:05;8.47;;;3.37;;
3379;SDS011;1703;51.964;7.642;2023-05-23T14:27:32;9.83;;;2.90;;
3379;SDS011;1703;51.964;7.642;2023-05-23T14:29:59;8.77;;;3.20;;
3379;SDS011;1703;51.964;7.642;2023-05-23T14:32:26;10.17;;;2.80;;
3379;SDS011;1703;51.964;7.642;2023-05-23T14:34:53;10.10;;;2.47;;
3379;SDS011;1703;51.964;7.642;2023-05-23T14:37:21;6.53;;;3.07;;
3379;SDS011;1703;51.964;7.642;2023-05-23T14:39:48;12.63;;;2.80;;
3379;SDS011;1703;51.964;7.642;2023-05-23T14:42:14;15.13;;;3.23;;
3379;SDS011;1703;51.964;7.642;2023-05-23T14:44:41;14.23;;;2.63;;
3379;SDS011;1703;51.964;7.642;2023-05-23T14:47:08;14.57;;;3.30;;
3379;SDS011;1703;51.964;7.642;2023-05-23T14:49:35;9.53;;;3.30;;
3379;SDS011;1703;51.964;7.642;2023-05-23T14:52:02;19.20;;;3.37;;
3379;SDS011;1703;51.964;7.642;2023-05-23T14:54:30;11.40;;;3.73;;
3379;SDS011;1703;51.964;7.642;2023-05-23T14:56:58;12.67;;;4.53;;
3379;SDS011;1703;51.964;7.642;2023-05-23T14:59:25;19.37;;;3.60;;
3379;SDS011;1703;51.964;7.642;2023-05-23T15:01:52;18.67;;;3.10;;
3379;SDS011;1703;51.964;7.642;2023-05-23T15:04:19;6.57;;;3.00;;
3379;SDS011;1703;51.964;7.642;2023-05-23T15:06:46;9.47;;;2.50;;
3379;SDS011;1703;51.964;7.642;2023-05-23T15:09:15;9.97;;;2.80;;
3379;SDS011;1703;51.964;7.642;2023-05-23T15:11:43;10.30;;;2.93;;
3379;SDS011;1703;51.964;7.642;2023-05-23T15:14:13;14.07;;;4.13;;
3379;SDS011;1703;51.964;7.642;2023-05-23T15:16:40;8.20;;;2.70;;
3379;SDS011;1703;51.964;7.642;2023-05-23T15:19:08;13.80;;;2.67;;
3379;SDS011;1703;51.964;7.642;2023-05-23T15:21:35;9.77;;;3.00;;
3379;SDS011;1703;51.964;7.642;2023-05-23T15:24:02;7.50;;;3.43;;
3379;SDS011;1703;51.964;7.642;2023-05-23T15:26:29;16.40;;;5.20;;
3379;SDS011;1703;51.964;7.642;2023-05-23T15:29:00;18.17;;;4.17;;
3379;SDS011;1703;51.964;7.642;2023-05-23T15:31:27;11.37;;;3.87;;
3379;SDS011;1703;51.964;7.642;2023-05-23T15:33:53;15.80;;;4.27;;
3379;SDS011;1703;51.964;7.642;2023-05-23T15:36:20;5.10;;;2.57;;
3379;SDS011;1703;51.964;7.642;2023-05-23T15:38:47;14.70;;;3.23;;
3379;SDS011;1703;51.964;7.642;2023-05-23T15:41:14;13.40;;;4.03;;